sensor_id;sensor_type;location;lat;lon;timestamp;P1;durP1;ratioP1;P2;durP2;ratioP2
58615;SDS011;44385;51.992;4.206;2023-07-16T00:01:09;8.77;;;5.20;;
58615;SDS011;44385;51.992;4.206;2023-07-16T00:03:40;13.93;;;5.88;;
58615;SDS011;44385;51.992;4.206;2023-07-16T00:06:07;11.50;;;5.38;;
58615;SDS011;44385;51.992;4.206;2023-07-16T00:08:35;11.75;;;5.13;;
58615;SDS011;44385;51.992;4.206;2023-07-16T00:11:12;9.45;;;4.57;;
58615;SDS011;44385;51.992;4.206;2023-07-16T00:13:46;13.20;;;5.68;;
58615;SDS011;44385;51.992;4.206;2023-07-16T00:16:14;10.45;;;4.72;;
58615;SDS011;44385;51.992;4.206;2023-07-16T00:18:46;12.38;;;5.28;;
58615;SDS011;44385;51.992;4.206;2023-07-16T00:21:18;14.30;;;5.68;;
58615;SDS011;44385;51.992;4.206;2023-07-16T00:23:48;13.80;;;5.93;;
58615;SDS011;44385;51.992;4.206;2023-07-16T00:26:16;12.38;;;5.03;;
58615;SDS011;44385;51.992;4.206;2023-07-16T00:28:48;13.80;;;5.65;;
58615;SDS011;44385;51.992;4.206;2023-07-16T00:31:16;11.88;;;5.65;;
58615;SDS011;44385;51.992;4.206;2023-07-16T00:33:44;15.43;;;6.38;;
58615;SDS011;44385;51.992;4.206;2023-07-16T00:36:15;10.48;;;5.47;;
58615;SDS011;44385;51.992;4.206;2023-07-16T00:38:43;12.93;;;6.47;;
58615;SDS011;44385;51.992;4.206;2023-07-16T00:41:12;11.88;;;5.93;;
58615;SDS011;44385;51.992;4.206;2023-07-16T00:43:41;11.38;;;5.90;;
58615;SDS011;44385;51.992;4.206;2023-07-16T00:46:12;13.38;;;5.75;;
58615;SDS011;44385;51.992;4.206;2023-07-16T00:48:44;8.85;;;5.22;;
58615;SDS011;44385;51.992;4.206;2023-07-16T00:51:12;10.57;;;5.65;;
58615;SDS011;44385;51.992;4.206;2023-07-16T00:53:43;14.27;;;5.93;;
58615;SDS011;44385;51.992;4.206;2023-07-16T00:56:12;16.27;;;6.53;;
58615;SDS011;44385;51.992;4.206;2023-07-16T00:58:48;14.95;;;6.45;;
58615;SDS011;44385;51.992;4.206;2023-07-16T01:01:21;11.77;;;6.78;;
58615;SDS011;44385;51.992;4.206;2023-07-16T01:03:50;20.98;;;7.40;;
58615;SDS011;44385;51.992;4.206;2023-07-16T01:06:17;16.05;;;6.57;;
58615;SDS011;44385;51.992;4.206;2023-07-16T01:08:49;16.80;;;7.38;;
58615;SDS011;44385;51.992;4.206;2023-07-16T01:11:16;14.07;;;6.90;;
58615;SDS011;44385;51.992;4.206;2023-07-16T01:13:48;14.00;;;6.93;;
58615;SDS011;44385;51.992;4.206;2023-07-16T01:16:23;13.38;;;6.72;;
58615;SDS011;44385;51.992;4.206;2023-07-16T01:18:56;18.92;;;7.10;;
58615;SDS011;44385;51.992;4.206;2023-07-16T01:21:24;15.05;;;6.95;;
58615;SDS011;44385;51.992;4.206;2023-07-16T01:24:00;16.38;;;6.97;;
58615;SDS011;44385;51.992;4.206;2023-07-16T01:26:38;17.50;;;7.00;;
58615;SDS011;44385;51.992;4.206;2023-07-16T01:32:00;17.50;;;7.38;;
58615;SDS011;44385;51.992;4.206;2023-07-16T01:34:29;10.25;;;6.95;;
58615;SDS011;44385;51.992;4.206;2023-07-16T01:37:00;15.27;;;6.72;;
58615;SDS011;44385;51.992;4.206;2023-07-16T01:41:59;18.48;;;8.05;;
58615;SDS011;44385;51.992;4.206;2023-07-16T01:44:27;12.23;;;7.00;;
58615;SDS011;44385;51.992;4.206;2023-07-16T01:47:08;15.73;;;7.53;;
58615;SDS011;44385;51.992;4.206;2023-07-16T01:49:36;13.75;;;6.85;;
58615;SDS011;44385;51.992;4.206;2023-07-16T01:52:07;15.38;;;6.55;;
58615;SDS011;44385;51.992;4.206;2023-07-16T01:54:41;13.95;;;6.90;;
58615;SDS011;44385;51.992;4.206;2023-07-16T01:57:09;12.18;;;6.63;;
58615;SDS011;44385;51.992;4.206;2023-07-16T01:59:36;15.95;;;7.45;;
58615;SDS011;44385;51.992;4.206;2023-07-16T02:04:35;14.00;;;7.03;;
58615;SDS011;44385;51.992;4.206;2023-07-16T02:07:05;14.00;;;7.40;;
58615;SDS011;44385;51.992;4.206;2023-07-16T02:09:33;10.10;;;6.45;;
58615;SDS011;44385;51.992;4.206;2023-07-16T02:12:02;13.17;;;6.77;;
58615;SDS011;44385;51.992;4.206;2023-07-16T02:14:29;15.98;;;7.47;;
58615;SDS011;44385;51.992;4.206;2023-07-16T02:17:01;13.93;;;7.32;;
58615;SDS011;44385;51.992;4.206;2023-07-16T02:19:30;14.82;;;6.10;;
58615;SDS011;44385;51.992;4.206;2023-07-16T02:22:01;13.88;;;7.25;;
58615;SDS011;44385;51.992;4.206;2023-07-16T02:24:32;15.05;;;7.75;;
58615;SDS011;44385;51.992;4.206;2023-07-16T02:27:03;15.80;;;8.30;;
58615;SDS011;44385;51.992;4.206;2023-07-16T02:29:33;18.95;;;8.15;;
58615;SDS011;44385;51.992;4.206;2023-07-16T02:32:01;15.98;;;7.97;;
58615;SDS011;44385;51.992;4.206;2023-07-16T02:34:28;11.68;;;7.75;;
58615;SDS011;44385;51.992;4.206;2023-07-16T02:36:57;17.33;;;7.88;;
58615;SDS011;44385;51.992;4.206;2023-07-16T02:39:27;18.25;;;8.60;;
58615;SDS011;44385;51.992;4.206;2023-07-16T02:41:55;13.75;;;8.38;;
58615;SDS011;44385;51.992;4.206;2023-07-16T02:44:24;16.55;;;7.85;;
58615;SDS011;44385;51.992;4.206;2023-07-16T02:46:52;16.08;;;7.22;;
58615;SDS011;44385;51.992;4.206;2023-07-16T02:49:19;18.38;;;8.23;;
58615;SDS011;44385;51.992;4.206;2023-07-16T02:51:47;12.20;;;8.38;;
58615;SDS011;44385;51.992;4.206;2023-07-16T02:54:18;15.10;;;7.20;;
58615;SDS011;44385;51.992;4.206;2023-07-16T02:56:48;13.98;;;7.55;;
58615;SDS011;44385;51.992;4.206;2023-07-16T02:59:16;12.52;;;7.25;;
58615;SDS011;44385;51.992;4.206;2023-07-16T03:01:44;15.65;;;6.28;;
58615;SDS011;44385;51.992;4.206;2023-07-16T03:04:13;13.38;;;7.10;;
58615;SDS011;44385;51.992;4.206;2023-07-16T03:09:09;11.90;;;5.80;;
58615;SDS011;44385;51.992;4.206;2023-07-16T03:11:40;10.93;;;5.75;;
58615;SDS011;44385;51.992;4.206;2023-07-16T03:14:08;19.80;;;6.68;;
58615;SDS011;44385;51.992;4.206;2023-07-16T03:16:36;11.27;;;5.97;;
58615;SDS011;44385;51.992;4.206;2023-07-16T03:19:04;11.52;;;5.65;;
58615;SDS011;44385;51.992;4.206;2023-07-16T03:21:33;9.50;;;5.73;;
58615;SDS011;44385;51.992;4.206;2023-07-16T03:24:00;15.48;;;6.15;;
58615;SDS011;44385;51.992;4.206;2023-07-16T03:26:28;14.43;;;6.32;;
58615;SDS011;44385;51.992;4.206;2023-07-16T03:28:56;13.73;;;6.18;;
58615;SDS011;44385;51.992;4.206;2023-07-16T03:31:26;13.77;;;6.95;;
58615;SDS011;44385;51.992;4.206;2023-07-16T03:33:57;16.77;;;6.93;;
58615;SDS011;44385;51.992;4.206;2023-07-16T03:36:24;17.05;;;6.72;;
58615;SDS011;44385;51.992;4.206;2023-07-16T03:38:51;13.70;;;7.47;;
58615;SDS011;44385;51.992;4.206;2023-07-16T03:41:18;18.40;;;7.95;;
58615;SDS011;44385;51.992;4.206;2023-07-16T03:43:46;18.38;;;7.63;;
58615;SDS011;44385;51.992;4.206;2023-07-16T03:46:14;10.17;;;6.70;;
58615;SDS011;44385;51.992;4.206;2023-07-16T03:48:45;12.68;;;7.25;;
58615;SDS011;44385;51.992;4.206;2023-07-16T03:51:13;19.40;;;8.45;;
58615;SDS011;44385;51.992;4.206;2023-07-16T03:53:42;21.42;;;7.18;;
58615;SDS011;44385;51.992;4.206;2023-07-16T03:56:12;16.23;;;7.68;;
58615;SDS011;44385;51.992;4.206;2023-07-16T03:58:39;16.40;;;8.00;;
58615;SDS011;44385;51.992;4.206;2023-07-16T04:01:07;13.88;;;8.02;;
58615;SDS011;44385;51.992;4.206;2023-07-16T04:03:36;12.00;;;6.68;;
58615;SDS011;44385;51.992;4.206;2023-07-16T04:06:09;17.48;;;8.63;;
58615;SDS011;44385;51.992;4.206;2023-07-16T04:08:40;17.70;;;7.82;;
58615;SDS011;44385;51.992;4.206;2023-07-16T04:11:08;16.10;;;8.30;;
58615;SDS011;44385;51.992;4.206;2023-07-16T04:16:08;13.32;;;8.20;;
58615;SDS011;44385;51.992;4.206;2023-07-16T04:18:35;16.65;;;7.90;;
58615;SDS011;44385;51.992;4.206;2023-07-16T04:23:35;14.00;;;8.00;;
58615;SDS011;44385;51.992;4.206;2023-07-16T04:26:04;14.88;;;8.45;;
58615;SDS011;44385;51.992;4.206;2023-07-16T04:28:32;17.65;;;8.90;;
58615;SDS011;44385;51.992;4.206;2023-07-16T04:31:00;17.40;;;8.20;;
58615;SDS011;44385;51.992;4.206;2023-07-16T04:33:27;14.63;;;7.68;;
58615;SDS011;44385;51.992;4.206;2023-07-16T04:35:56;18.50;;;8.40;;
58615;SDS011;44385;51.992;4.206;2023-07-16T04:38:24;17.50;;;8.80;;
58615;SDS011;44385;51.992;4.206;2023-07-16T04:40:59;14.38;;;7.90;;
58615;SDS011;44385;51.992;4.206;2023-07-16T04:43:32;16.80;;;8.68;;
58615;SDS011;44385;51.992;4.206;2023-07-16T04:45:59;10.52;;;5.47;;
58615;SDS011;44385;51.992;4.206;2023-07-16T04:48:26;11.38;;;7.15;;
58615;SDS011;44385;51.992;4.206;2023-07-16T04:50:59;14.82;;;7.70;;
58615;SDS011;44385;51.992;4.206;2023-07-16T04:53:26;15.23;;;7.78;;
58615;SDS011;44385;51.992;4.206;2023-07-16T04:55:54;13.30;;;7.90;;
58615;SDS011;44385;51.992;4.206;2023-07-16T04:58:26;11.00;;;6.40;;
58615;SDS011;44385;51.992;4.206;2023-07-16T05:00:53;15.88;;;7.28;;
58615;SDS011;44385;51.992;4.206;2023-07-16T05:03:21;10.27;;;6.57;;
58615;SDS011;44385;51.992;4.206;2023-07-16T05:05:48;13.23;;;6.28;;
58615;SDS011;44385;51.992;4.206;2023-07-16T05:08:16;14.48;;;7.60;;
58615;SDS011;44385;51.992;4.206;2023-07-16T05:10:43;11.77;;;6.82;;
58615;SDS011;44385;51.992;4.206;2023-07-16T05:13:15;13.13;;;6.65;;
58615;SDS011;44385;51.992;4.206;2023-07-16T05:15:46;12.38;;;6.43;;
58615;SDS011;44385;51.992;4.206;2023-07-16T05:18:13;16.80;;;7.38;;
58615;SDS011;44385;51.992;4.206;2023-07-16T05:20:42;9.53;;;5.70;;
58615;SDS011;44385;51.992;4.206;2023-07-16T05:23:10;13.00;;;6.90;;
58615;SDS011;44385;51.992;4.206;2023-07-16T05:25:48;17.55;;;6.55;;
58615;SDS011;44385;51.992;4.206;2023-07-16T05:28:16;12.25;;;6.63;;
58615;SDS011;44385;51.992;4.206;2023-07-16T05:31:00;18.02;;;6.97;;
58615;SDS011;44385;51.992;4.206;2023-07-16T05:33:29;14.63;;;6.97;;
58615;SDS011;44385;51.992;4.206;2023-07-16T05:35:59;17.50;;;8.02;;
58615;SDS011;44385;51.992;4.206;2023-07-16T05:38:33;13.38;;;7.30;;
58615;SDS011;44385;51.992;4.206;2023-07-16T05:41:06;14.00;;;6.80;;
58615;SDS011;44385;51.992;4.206;2023-07-16T05:43:33;15.10;;;7.05;;
58615;SDS011;44385;51.992;4.206;2023-07-16T05:46:03;12.82;;;7.35;;
58615;SDS011;44385;51.992;4.206;2023-07-16T05:48:34;15.05;;;7.43;;
58615;SDS011;44385;51.992;4.206;2023-07-16T05:51:01;13.60;;;7.05;;
58615;SDS011;44385;51.992;4.206;2023-07-16T05:53:32;17.98;;;6.97;;
58615;SDS011;44385;51.992;4.206;2023-07-16T05:56:00;14.63;;;6.75;;
58615;SDS011;44385;51.992;4.206;2023-07-16T05:58:33;12.30;;;7.90;;
58615;SDS011;44385;51.992;4.206;2023-07-16T06:01:03;15.10;;;7.32;;
58615;SDS011;44385;51.992;4.206;2023-07-16T06:03:31;13.65;;;6.28;;
58615;SDS011;44385;51.992;4.206;2023-07-16T06:05:58;14.45;;;6.65;;
58615;SDS011;44385;51.992;4.206;2023-07-16T06:08:26;13.60;;;6.22;;
58615;SDS011;44385;51.992;4.206;2023-07-16T06:10:55;13.05;;;7.25;;
58615;SDS011;44385;51.992;4.206;2023-07-16T06:13:32;15.82;;;7.80;;
58615;SDS011;44385;51.992;4.206;2023-07-16T06:15:59;12.77;;;7.40;;
58615;SDS011;44385;51.992;4.206;2023-07-16T06:18:33;15.48;;;7.55;;
58615;SDS011;44385;51.992;4.206;2023-07-16T06:21:02;14.23;;;6.70;;
58615;SDS011;44385;51.992;4.206;2023-07-16T06:23:32;14.15;;;6.93;;
58615;SDS011;44385;51.992;4.206;2023-07-16T06:26:01;11.48;;;7.03;;
58615;SDS011;44385;51.992;4.206;2023-07-16T06:28:32;17.80;;;7.45;;
58615;SDS011;44385;51.992;4.206;2023-07-16T06:30:59;13.63;;;7.45;;
58615;SDS011;44385;51.992;4.206;2023-07-16T06:33:29;14.73;;;7.13;;
58615;SDS011;44385;51.992;4.206;2023-07-16T06:35:58;14.43;;;6.55;;
58615;SDS011;44385;51.992;4.206;2023-07-16T06:38:33;11.00;;;5.55;;
58615;SDS011;44385;51.992;4.206;2023-07-16T06:41:00;14.20;;;7.30;;
58615;SDS011;44385;51.992;4.206;2023-07-16T06:43:27;16.20;;;7.20;;
58615;SDS011;44385;51.992;4.206;2023-07-16T06:45:57;13.25;;;7.68;;
58615;SDS011;44385;51.992;4.206;2023-07-16T06:48:25;11.82;;;7.25;;
58615;SDS011;44385;51.992;4.206;2023-07-16T06:50:55;16.30;;;7.18;;
58615;SDS011;44385;51.992;4.206;2023-07-16T06:53:23;15.13;;;7.82;;
58615;SDS011;44385;51.992;4.206;2023-07-16T06:55:53;13.25;;;6.78;;
58615;SDS011;44385;51.992;4.206;2023-07-16T06:58:30;14.02;;;7.05;;
58615;SDS011;44385;51.992;4.206;2023-07-16T07:00:58;16.92;;;7.93;;
58615;SDS011;44385;51.992;4.206;2023-07-16T07:03:28;13.65;;;8.32;;
58615;SDS011;44385;51.992;4.206;2023-07-16T07:06:04;16.33;;;7.55;;
58615;SDS011;44385;51.992;4.206;2023-07-16T07:08:31;15.35;;;7.57;;
58615;SDS011;44385;51.992;4.206;2023-07-16T07:10:59;15.20;;;7.22;;
58615;SDS011;44385;51.992;4.206;2023-07-16T07:13:27;15.05;;;7.20;;
58615;SDS011;44385;51.992;4.206;2023-07-16T07:15:59;14.90;;;7.05;;
58615;SDS011;44385;51.992;4.206;2023-07-16T07:18:32;18.15;;;8.57;;
58615;SDS011;44385;51.992;4.206;2023-07-16T07:21:03;12.77;;;7.20;;
58615;SDS011;44385;51.992;4.206;2023-07-16T07:23:31;12.35;;;7.10;;
58615;SDS011;44385;51.992;4.206;2023-07-16T07:25:58;16.60;;;6.93;;
58615;SDS011;44385;51.992;4.206;2023-07-16T07:28:26;13.25;;;6.10;;
58615;SDS011;44385;51.992;4.206;2023-07-16T07:30:54;11.98;;;6.80;;
58615;SDS011;44385;51.992;4.206;2023-07-16T07:33:27;11.80;;;6.28;;
58615;SDS011;44385;51.992;4.206;2023-07-16T07:35:57;15.15;;;6.53;;
58615;SDS011;44385;51.992;4.206;2023-07-16T07:38:34;14.90;;;6.40;;
58615;SDS011;44385;51.992;4.206;2023-07-16T07:41:05;14.82;;;7.45;;
58615;SDS011;44385;51.992;4.206;2023-07-16T07:43:38;12.20;;;6.53;;
58615;SDS011;44385;51.992;4.206;2023-07-16T07:46:05;17.42;;;5.93;;
58615;SDS011;44385;51.992;4.206;2023-07-16T07:48:33;13.75;;;5.80;;
58615;SDS011;44385;51.992;4.206;2023-07-16T07:50:59;14.30;;;5.57;;
58615;SDS011;44385;51.992;4.206;2023-07-16T07:53:27;9.95;;;5.05;;
58615;SDS011;44385;51.992;4.206;2023-07-16T08:11:34;16.13;;;7.28;;
58615;SDS011;44385;51.992;4.206;2023-07-16T08:15:26;12.30;;;5.70;;
58615;SDS011;44385;51.992;4.206;2023-07-16T08:17:40;13.82;;;6.55;;
58615;SDS011;44385;51.992;4.206;2023-07-16T08:23:51;11.77;;;5.28;;
58615;SDS011;44385;51.992;4.206;2023-07-16T08:26:32;13.43;;;6.97;;
58615;SDS011;44385;51.992;4.206;2023-07-16T08:29:24;12.07;;;6.00;;
58615;SDS011;44385;51.992;4.206;2023-07-16T08:31:50;11.82;;;5.95;;
58615;SDS011;44385;51.992;4.206;2023-07-16T08:34:17;13.73;;;7.10;;
58615;SDS011;44385;51.992;4.206;2023-07-16T08:36:43;14.25;;;6.28;;
58615;SDS011;44385;51.992;4.206;2023-07-16T08:39:10;12.10;;;6.80;;
58615;SDS011;44385;51.992;4.206;2023-07-16T08:41:40;14.27;;;6.28;;
58615;SDS011;44385;51.992;4.206;2023-07-16T08:44:07;10.40;;;6.35;;
58615;SDS011;44385;51.992;4.206;2023-07-16T08:46:35;13.73;;;6.50;;
58615;SDS011;44385;51.992;4.206;2023-07-16T08:49:01;13.32;;;6.20;;
58615;SDS011;44385;51.992;4.206;2023-07-16T08:51:32;17.13;;;7.03;;
58615;SDS011;44385;51.992;4.206;2023-07-16T08:54:00;17.00;;;6.00;;
58615;SDS011;44385;51.992;4.206;2023-07-16T08:56:26;18.13;;;5.57;;
58615;SDS011;44385;51.992;4.206;2023-07-16T08:58:53;14.57;;;5.32;;
58615;SDS011;44385;51.992;4.206;2023-07-16T09:01:20;11.00;;;5.38;;
58615;SDS011;44385;51.992;4.206;2023-07-16T09:03:48;13.07;;;4.95;;
58615;SDS011;44385;51.992;4.206;2023-07-16T09:06:14;16.80;;;5.78;;
58615;SDS011;44385;51.992;4.206;2023-07-16T09:08:41;18.48;;;6.55;;
58615;SDS011;44385;51.992;4.206;2023-07-16T09:11:10;13.25;;;5.50;;
58615;SDS011;44385;51.992;4.206;2023-07-16T09:13:43;14.85;;;5.32;;
58615;SDS011;44385;51.992;4.206;2023-07-16T09:16:09;11.77;;;5.63;;
58615;SDS011;44385;51.992;4.206;2023-07-16T09:18:35;11.80;;;4.85;;
58615;SDS011;44385;51.992;4.206;2023-07-16T09:21:03;14.45;;;6.05;;
58615;SDS011;44385;51.992;4.206;2023-07-16T09:25:59;16.50;;;5.90;;
58615;SDS011;44385;51.992;4.206;2023-07-16T09:28:26;16.10;;;6.20;;
58615;SDS011;44385;51.992;4.206;2023-07-16T09:30:52;15.32;;;5.88;;
58615;SDS011;44385;51.992;4.206;2023-07-16T09:33:19;15.25;;;5.97;;
58615;SDS011;44385;51.992;4.206;2023-07-16T09:35:47;14.60;;;5.65;;
58615;SDS011;44385;51.992;4.206;2023-07-16T09:38:17;19.60;;;5.80;;
58615;SDS011;44385;51.992;4.206;2023-07-16T09:40:44;14.02;;;6.22;;
58615;SDS011;44385;51.992;4.206;2023-07-16T09:43:13;10.93;;;4.63;;
58615;SDS011;44385;51.992;4.206;2023-07-16T09:45:40;10.00;;;5.13;;
58615;SDS011;44385;51.992;4.206;2023-07-16T09:48:07;11.02;;;4.72;;
58615;SDS011;44385;51.992;4.206;2023-07-16T09:50:34;10.25;;;4.65;;
58615;SDS011;44385;51.992;4.206;2023-07-16T09:53:00;15.82;;;5.53;;
58615;SDS011;44385;51.992;4.206;2023-07-16T09:55:32;11.02;;;3.63;;
58615;SDS011;44385;51.992;4.206;2023-07-16T09:57:59;11.45;;;3.20;;
58615;SDS011;44385;51.992;4.206;2023-07-16T10:00:26;11.82;;;3.85;;
58615;SDS011;44385;51.992;4.206;2023-07-16T10:02:53;7.68;;;3.20;;
58615;SDS011;44385;51.992;4.206;2023-07-16T10:05:23;10.88;;;3.20;;
58615;SDS011;44385;51.992;4.206;2023-07-16T10:07:50;8.93;;;3.33;;
58615;SDS011;44385;51.992;4.206;2023-07-16T10:10:16;8.63;;;3.28;;
58615;SDS011;44385;51.992;4.206;2023-07-16T10:12:55;9.52;;;2.90;;
58615;SDS011;44385;51.992;4.206;2023-07-16T10:15:24;12.38;;;4.78;;
58615;SDS011;44385;51.992;4.206;2023-07-16T10:17:51;7.68;;;3.60;;
58615;SDS011;44385;51.992;4.206;2023-07-16T10:20:17;11.95;;;2.72;;
58615;SDS011;44385;51.992;4.206;2023-07-16T10:22:53;9.07;;;2.67;;
58615;SDS011;44385;51.992;4.206;2023-07-16T10:25:23;7.05;;;2.83;;
58615;SDS011;44385;51.992;4.206;2023-07-16T10:27:51;9.80;;;2.30;;
58615;SDS011;44385;51.992;4.206;2023-07-16T10:30:19;11.27;;;2.92;;
58615;SDS011;44385;51.992;4.206;2023-07-16T10:32:46;7.30;;;2.70;;
58615;SDS011;44385;51.992;4.206;2023-07-16T10:35:13;9.73;;;2.97;;
58615;SDS011;44385;51.992;4.206;2023-07-16T10:37:39;12.63;;;3.45;;
58615;SDS011;44385;51.992;4.206;2023-07-16T10:40:06;11.13;;;2.50;;
58615;SDS011;44385;51.992;4.206;2023-07-16T10:42:36;7.25;;;2.67;;
58615;SDS011;44385;51.992;4.206;2023-07-16T10:45:05;9.05;;;2.92;;
58615;SDS011;44385;51.992;4.206;2023-07-16T10:47:34;8.02;;;3.22;;
58615;SDS011;44385;51.992;4.206;2023-07-16T10:50:02;10.60;;;3.45;;
58615;SDS011;44385;51.992;4.206;2023-07-16T10:52:30;8.35;;;2.67;;
58615;SDS011;44385;51.992;4.206;2023-07-16T10:54:56;8.88;;;2.40;;
58615;SDS011;44385;51.992;4.206;2023-07-16T10:57:23;9.85;;;3.30;;
58615;SDS011;44385;51.992;4.206;2023-07-16T10:59:50;9.90;;;2.67;;
58615;SDS011;44385;51.992;4.206;2023-07-16T11:02:18;12.20;;;2.67;;
58615;SDS011;44385;51.992;4.206;2023-07-16T11:04:46;7.07;;;2.05;;
58615;SDS011;44385;51.992;4.206;2023-07-16T11:07:13;11.18;;;2.70;;
58615;SDS011;44385;51.992;4.206;2023-07-16T11:09:40;8.07;;;2.25;;
58615;SDS011;44385;51.992;4.206;2023-07-16T11:12:08;5.82;;;2.38;;
58615;SDS011;44385;51.992;4.206;2023-07-16T11:14:35;7.38;;;1.67;;
58615;SDS011;44385;51.992;4.206;2023-07-16T11:17:04;9.18;;;2.30;;
58615;SDS011;44385;51.992;4.206;2023-07-16T11:19:32;5.47;;;2.25;;
58615;SDS011;44385;51.992;4.206;2023-07-16T11:22:00;7.90;;;2.00;;
58615;SDS011;44385;51.992;4.206;2023-07-16T11:24:26;11.03;;;2.87;;
58615;SDS011;44385;51.992;4.206;2023-07-16T11:26:53;8.85;;;2.28;;
58615;SDS011;44385;51.992;4.206;2023-07-16T11:29:22;12.07;;;2.13;;
58615;SDS011;44385;51.992;4.206;2023-07-16T11:31:48;7.95;;;2.15;;
58615;SDS011;44385;51.992;4.206;2023-07-16T11:34:15;8.68;;;2.13;;
58615;SDS011;44385;51.992;4.206;2023-07-16T11:36:42;8.90;;;2.13;;
58615;SDS011;44385;51.992;4.206;2023-07-16T11:39:11;8.48;;;2.45;;
58615;SDS011;44385;51.992;4.206;2023-07-16T11:41:38;8.95;;;2.42;;
58615;SDS011;44385;51.992;4.206;2023-07-16T11:44:06;9.75;;;2.97;;
58615;SDS011;44385;51.992;4.206;2023-07-16T11:46:33;15.80;;;3.80;;
58615;SDS011;44385;51.992;4.206;2023-07-16T11:49:00;5.45;;;1.70;;
58615;SDS011;44385;51.992;4.206;2023-07-16T11:51:26;8.30;;;2.30;;
58615;SDS011;44385;51.992;4.206;2023-07-16T11:53:53;10.80;;;2.65;;
58615;SDS011;44385;51.992;4.206;2023-07-16T11:56:21;7.63;;;2.80;;
58615;SDS011;44385;51.992;4.206;2023-07-16T11:58:48;11.90;;;3.60;;
58615;SDS011;44385;51.992;4.206;2023-07-16T12:01:15;10.32;;;2.75;;
58615;SDS011;44385;51.992;4.206;2023-07-16T12:03:42;10.13;;;3.15;;
58615;SDS011;44385;51.992;4.206;2023-07-16T12:06:08;9.75;;;2.90;;
58615;SDS011;44385;51.992;4.206;2023-07-16T12:08:35;10.18;;;2.38;;
58615;SDS011;44385;51.992;4.206;2023-07-16T12:11:01;10.98;;;3.20;;
58615;SDS011;44385;51.992;4.206;2023-07-16T12:13:30;13.18;;;2.92;;
58615;SDS011;44385;51.992;4.206;2023-07-16T12:15:58;11.02;;;2.88;;
58615;SDS011;44385;51.992;4.206;2023-07-16T12:18:24;9.80;;;3.33;;
58615;SDS011;44385;51.992;4.206;2023-07-16T12:20:50;8.43;;;2.33;;
58615;SDS011;44385;51.992;4.206;2023-07-16T12:23:16;10.45;;;2.70;;
58615;SDS011;44385;51.992;4.206;2023-07-16T12:25:43;7.07;;;2.38;;
58615;SDS011;44385;51.992;4.206;2023-07-16T12:28:09;8.32;;;2.22;;
58615;SDS011;44385;51.992;4.206;2023-07-16T12:30:41;7.28;;;2.55;;
58615;SDS011;44385;51.992;4.206;2023-07-16T12:33:07;7.30;;;1.95;;
58615;SDS011;44385;51.992;4.206;2023-07-16T12:35:34;10.15;;;2.65;;
58615;SDS011;44385;51.992;4.206;2023-07-16T12:38:00;6.82;;;2.60;;
58615;SDS011;44385;51.992;4.206;2023-07-16T12:40:28;8.35;;;2.03;;
58615;SDS011;44385;51.992;4.206;2023-07-16T12:45:22;10.32;;;3.05;;
58615;SDS011;44385;51.992;4.206;2023-07-16T12:47:50;13.25;;;2.63;;
58615;SDS011;44385;51.992;4.206;2023-07-16T12:50:16;10.63;;;2.70;;
58615;SDS011;44385;51.992;4.206;2023-07-16T12:52:43;17.13;;;3.90;;
58615;SDS011;44385;51.992;4.206;2023-07-16T12:55:10;11.00;;;2.58;;
58615;SDS011;44385;51.992;4.206;2023-07-16T12:57:36;7.93;;;3.72;;
58615;SDS011;44385;51.992;4.206;2023-07-16T13:00:03;10.68;;;3.10;;
58615;SDS011;44385;51.992;4.206;2023-07-16T13:02:30;11.20;;;3.05;;
58615;SDS011;44385;51.992;4.206;2023-07-16T13:05:01;10.63;;;2.80;;
58615;SDS011;44385;51.992;4.206;2023-07-16T13:07:27;11.63;;;3.45;;
58615;SDS011;44385;51.992;4.206;2023-07-16T13:09:54;16.52;;;3.03;;
58615;SDS011;44385;51.992;4.206;2023-07-16T13:12:20;8.00;;;2.22;;
58615;SDS011;44385;51.992;4.206;2023-07-16T13:14:47;12.38;;;3.83;;
58615;SDS011;44385;51.992;4.206;2023-07-16T13:17:14;13.93;;;3.40;;
58615;SDS011;44385;51.992;4.206;2023-07-16T13:19:42;8.63;;;2.85;;
58615;SDS011;44385;51.992;4.206;2023-07-16T13:22:13;18.08;;;3.33;;
58615;SDS011;44385;51.992;4.206;2023-07-16T13:24:42;19.25;;;3.60;;
58615;SDS011;44385;51.992;4.206;2023-07-16T13:29:35;8.98;;;2.78;;
58615;SDS011;44385;51.992;4.206;2023-07-16T13:34:33;11.63;;;3.00;;
58615;SDS011;44385;51.992;4.206;2023-07-16T13:37:01;9.15;;;3.03;;
58615;SDS011;44385;51.992;4.206;2023-07-16T13:39:30;7.25;;;2.67;;
58615;SDS011;44385;51.992;4.206;2023-07-16T13:41:56;15.40;;;3.78;;
58615;SDS011;44385;51.992;4.206;2023-07-16T13:44:23;12.38;;;3.30;;
58615;SDS011;44385;51.992;4.206;2023-07-16T13:46:49;15.00;;;3.60;;
58615;SDS011;44385;51.992;4.206;2023-07-16T13:49:19;13.73;;;3.80;;
58615;SDS011;44385;51.992;4.206;2023-07-16T13:51:45;15.45;;;3.17;;
58615;SDS011;44385;51.992;4.206;2023-07-16T13:54:12;14.20;;;3.50;;
58615;SDS011;44385;51.992;4.206;2023-07-16T13:56:40;10.20;;;2.47;;
58615;SDS011;44385;51.992;4.206;2023-07-16T13:59:07;11.63;;;4.07;;
58615;SDS011;44385;51.992;4.206;2023-07-16T14:01:37;10.68;;;3.42;;
58615;SDS011;44385;51.992;4.206;2023-07-16T14:04:06;11.63;;;3.28;;
58615;SDS011;44385;51.992;4.206;2023-07-16T14:06:33;15.18;;;3.30;;
58615;SDS011;44385;51.992;4.206;2023-07-16T14:08:59;16.70;;;3.53;;
58615;SDS011;44385;51.992;4.206;2023-07-16T14:11:26;13.43;;;3.42;;
58615;SDS011;44385;51.992;4.206;2023-07-16T14:13:53;16.67;;;3.78;;
58615;SDS011;44385;51.992;4.206;2023-07-16T14:16:20;13.20;;;3.33;;
58615;SDS011;44385;51.992;4.206;2023-07-16T14:18:49;12.43;;;3.28;;
58615;SDS011;44385;51.992;4.206;2023-07-16T14:21:16;9.65;;;3.25;;
58615;SDS011;44385;51.992;4.206;2023-07-16T14:23:43;12.77;;;3.15;;
58615;SDS011;44385;51.992;4.206;2023-07-16T14:26:10;11.70;;;3.50;;
58615;SDS011;44385;51.992;4.206;2023-07-16T14:28:40;15.82;;;3.78;;
58615;SDS011;44385;51.992;4.206;2023-07-16T14:31:07;11.88;;;2.90;;
58615;SDS011;44385;51.992;4.206;2023-07-16T14:33:34;12.23;;;3.65;;
58615;SDS011;44385;51.992;4.206;2023-07-16T14:36:00;8.13;;;3.30;;
58615;SDS011;44385;51.992;4.206;2023-07-16T14:38:28;14.00;;;3.88;;
58615;SDS011;44385;51.992;4.206;2023-07-16T14:40:55;14.88;;;3.33;;
58615;SDS011;44385;51.992;4.206;2023-07-16T14:43:21;11.63;;;2.47;;
58615;SDS011;44385;51.992;4.206;2023-07-16T14:45:47;12.10;;;2.85;;
58615;SDS011;44385;51.992;4.206;2023-07-16T14:48:15;11.48;;;2.72;;
58615;SDS011;44385;51.992;4.206;2023-07-16T14:50:42;11.32;;;3.67;;
58615;SDS011;44385;51.992;4.206;2023-07-16T14:53:08;10.05;;;3.05;;
58615;SDS011;44385;51.992;4.206;2023-07-16T14:55:35;15.10;;;3.90;;
58615;SDS011;44385;51.992;4.206;2023-07-16T14:58:02;13.95;;;2.95;;
58615;SDS011;44385;51.992;4.206;2023-07-16T15:00:28;15.48;;;4.30;;
58615;SDS011;44385;51.992;4.206;2023-07-16T15:02:55;19.67;;;4.90;;
58615;SDS011;44385;51.992;4.206;2023-07-16T15:05:22;9.93;;;3.63;;
58615;SDS011;44385;51.992;4.206;2023-07-16T15:07:49;17.75;;;3.75;;
58615;SDS011;44385;51.992;4.206;2023-07-16T15:10:15;8.82;;;3.10;;
58615;SDS011;44385;51.992;4.206;2023-07-16T15:12:42;8.38;;;2.60;;
58615;SDS011;44385;51.992;4.206;2023-07-16T15:15:09;13.93;;;3.42;;
58615;SDS011;44385;51.992;4.206;2023-07-16T15:17:36;7.88;;;3.17;;
58615;SDS011;44385;51.992;4.206;2023-07-16T15:20:04;10.63;;;3.00;;
58615;SDS011;44385;51.992;4.206;2023-07-16T15:22:32;8.38;;;2.28;;
58615;SDS011;44385;51.992;4.206;2023-07-16T15:24:59;14.85;;;2.60;;
58615;SDS011;44385;51.992;4.206;2023-07-16T15:27:26;8.98;;;2.17;;
58615;SDS011;44385;51.992;4.206;2023-07-16T15:29:52;8.30;;;2.20;;